createdAt,value
2019-05-11T00:01:38.817Z,75.12
2019-05-11T00:04:09.375Z,75.27
2019-05-11T00:06:38.969Z,75.08
2019-05-11T00:09:08.638Z,74.62
2019-05-11T00:11:38.239Z,73.98
2019-05-11T00:14:08.117Z,73.48
2019-05-11T00:16:37.662Z,73.44
2019-05-11T00:19:07.242Z,74.08
2019-05-11T00:21:36.776Z,74.68
2019-05-11T00:24:06.300Z,75.44
2019-05-11T00:26:35.851Z,74.28
2019-05-11T00:29:05.456Z,73.31
2019-05-11T00:31:34.976Z,73.70
2019-05-11T00:34:07.099Z,73.39
2019-05-11T00:36:37.162Z,73.50
2019-05-11T00:39:08.565Z,73.74
2019-05-11T00:41:38.141Z,74.21
2019-05-11T00:44:07.812Z,73.86
2019-05-11T00:46:37.321Z,73.57
2019-05-11T00:49:06.988Z,72.92
2019-05-11T00:51:37.200Z,73.26
2019-05-11T00:54:06.767Z,73.35
2019-05-11T00:56:36.271Z,73.44
2019-05-11T00:59:20.980Z,73.59
2019-05-11T01:01:37.802Z,73.88
2019-05-11T01:04:07.522Z,74.50
2019-05-11T01:06:37.087Z,75.24
2019-05-11T01:09:08.676Z,75.08
2019-05-11T01:11:38.177Z,75.64
2019-05-11T01:14:09.072Z,74.79
2019-05-11T01:16:38.634Z,74.31
2019-05-11T01:19:08.225Z,74.13
2019-05-11T01:21:37.768Z,74.06
2019-05-11T01:24:07.351Z,73.75
2019-05-11T01:26:36.876Z,73.32
2019-05-11T01:29:06.583Z,73.22
2019-05-11T01:31:36.134Z,72.78
2019-05-11T01:34:05.883Z,73.23
2019-05-11T01:36:35.994Z,73.71
2019-05-11T01:39:07.858Z,72.92
2019-05-11T01:41:37.512Z,73.66
2019-05-11T01:44:07.066Z,74.24
2019-05-11T01:46:36.637Z,73.62
2019-05-11T01:49:06.350Z,73.94
2019-05-11T01:51:35.944Z,73.66
2019-05-11T01:54:05.591Z,73.71
2019-05-11T01:56:35.491Z,74.44
2019-05-11T01:59:06.212Z,74.74
2019-05-11T02:01:35.884Z,75.01
2019-05-11T02:04:05.617Z,74.42
2019-05-11T02:06:35.170Z,74.63
2019-05-11T02:09:07.023Z,74.83
2019-05-11T02:11:36.645Z,74.82
2019-05-11T02:14:09.451Z,74.84
2019-05-11T02:16:39.003Z,75.42
2019-05-11T02:19:08.714Z,75.11
2019-05-11T02:21:38.322Z,74.89
2019-05-11T02:24:07.958Z,73.88
2019-05-11T02:26:37.531Z,73.92
2019-05-11T02:29:07.123Z,74.51
2019-05-11T02:31:36.687Z,74.07
2019-05-11T02:34:06.282Z,74.33
2019-05-11T02:36:35.941Z,73.83
2019-05-11T02:39:08.128Z,73.16
2019-05-11T02:41:38.330Z,73.07
2019-05-11T02:44:08.440Z,72.96
2019-05-11T02:46:38.135Z,72.96
2019-05-11T02:49:07.859Z,73.05
2019-05-11T02:51:38.588Z,72.75
2019-05-11T02:54:09.508Z,72.76
2019-05-11T02:56:38.995Z,73.22
2019-05-11T02:59:10.647Z,72.67
2019-05-11T03:01:40.184Z,72.85
2019-05-11T03:04:09.678Z,71.92
2019-05-11T03:06:39.249Z,71.45
2019-05-11T03:09:08.774Z,71.82
2019-05-11T03:11:53.954Z,71.59
2019-05-11T03:14:11.818Z,71.28
2019-05-11T03:16:41.407Z,71.89
2019-05-11T03:19:11.308Z,71.12
2019-05-11T03:21:40.905Z,71.95
2019-05-11T03:24:10.468Z,71.65
2019-05-11T03:26:39.980Z,72.09
2019-05-11T03:29:09.589Z,72.61
2019-05-11T03:31:39.310Z,72.68
2019-05-11T03:34:08.993Z,73.56
2019-05-11T03:36:38.568Z,74.68
2019-05-11T03:39:08.248Z,75.89
2019-05-11T03:41:37.824Z,75.33
2019-05-11T03:44:07.431Z,75.62
2019-05-11T03:46:37.005Z,75.44
2019-05-11T03:49:06.536Z,74.71
2019-05-11T03:51:36.102Z,73.86
2019-05-11T03:54:06.388Z,73.16
2019-05-11T03:56:35.885Z,74.16
2019-05-11T03:59:05.831Z,74.10
2019-05-11T04:01:35.320Z,72.97
2019-05-11T04:04:04.975Z,72.12
2019-05-11T04:06:34.513Z,71.35
2019-05-11T04:09:06.263Z,71.61
2019-05-11T04:11:35.827Z,70.94
2019-05-11T04:14:05.542Z,70.74
2019-05-11T04:16:35.608Z,70.65
2019-05-11T04:19:05.171Z,70.10
2019-05-11T04:21:34.976Z,69.66
2019-05-11T04:24:04.725Z,69.65
2019-05-11T04:26:34.240Z,69.36
2019-05-11T04:29:03.831Z,69.50
2019-05-11T04:31:33.411Z,69.08
2019-05-11T04:34:02.959Z,68.97
2019-05-11T04:36:32.510Z,67.83
2019-05-11T04:39:02.018Z,67.85
2019-05-11T04:41:31.609Z,68.51
2019-05-11T04:44:01.445Z,68.60
2019-05-11T04:46:30.985Z,68.66
2019-05-11T04:49:00.586Z,68.65
2019-05-11T04:51:30.203Z,68.45
2019-05-11T04:53:59.731Z,68.17
2019-05-11T04:56:29.321Z,67.16
2019-05-11T04:58:58.855Z,67.03
2019-05-11T05:01:28.432Z,66.40
2019-05-11T05:04:13.433Z,66.53
2019-05-11T05:06:29.695Z,66.66
2019-05-11T05:09:03.725Z,67.31
2019-05-11T05:11:36.118Z,67.22
2019-05-11T05:14:08.035Z,66.97
2019-05-11T05:16:33.083Z,66.50
2019-05-11T05:19:02.798Z,66.33
2019-05-11T05:21:32.868Z,66.82
2019-05-11T05:24:02.495Z,67.42
2019-05-11T05:26:32.155Z,67.84
2019-05-11T05:29:01.781Z,68.08
2019-05-11T05:31:31.436Z,68.03
2019-05-11T05:34:01.596Z,67.60
2019-05-11T05:36:31.556Z,67.40
2019-05-11T05:39:01.153Z,67.67
2019-05-11T05:41:30.783Z,67.90
2019-05-11T05:44:00.932Z,68.19
2019-05-11T05:46:30.496Z,67.64
2019-05-11T05:49:00.141Z,66.92
2019-05-11T05:51:29.674Z,66.30
2019-05-11T05:53:59.179Z,65.90
2019-05-11T05:56:28.697Z,65.55
2019-05-11T05:58:58.336Z,64.94
2019-05-11T06:01:28.011Z,64.31
2019-05-11T06:03:57.784Z,64.22
2019-05-11T06:06:29.364Z,64.24
2019-05-11T06:08:58.848Z,64.14
2019-05-11T06:11:28.413Z,64.46
2019-05-11T06:13:57.926Z,63.96
2019-05-11T06:16:27.423Z,65.31
2019-05-11T06:18:56.944Z,65.39
2019-05-11T06:21:26.909Z,65.27
2019-05-11T06:23:56.420Z,65.44
2019-05-11T06:26:25.931Z,65.44
2019-05-11T06:28:56.104Z,64.46
2019-05-11T06:31:25.629Z,65.03
2019-05-11T06:33:55.292Z,64.43
2019-05-11T06:36:24.826Z,63.52
2019-05-11T06:38:54.342Z,63.61
2019-05-11T06:41:23.879Z,63.47
2019-05-11T06:44:01.932Z,62.89
2019-05-11T06:46:24.870Z,62.32
2019-05-11T06:48:54.390Z,61.89
2019-05-11T06:51:25.915Z,61.65
2019-05-11T06:53:55.516Z,60.67
2019-05-11T06:56:25.058Z,60.41
2019-05-11T06:58:54.580Z,60.36
2019-05-11T07:01:25.399Z,59.21
2019-05-11T07:03:54.976Z,59.58
2019-05-11T07:06:28.252Z,58.97
2019-05-11T07:08:55.788Z,58.40
2019-05-11T07:11:25.396Z,57.37
2019-05-11T07:13:56.787Z,56.70
2019-05-11T07:16:26.569Z,56.42
2019-05-11T07:18:56.150Z,55.63
2019-05-11T07:21:25.671Z,55.08
2019-05-11T07:23:55.342Z,53.81
2019-05-11T07:26:24.861Z,53.63
2019-05-11T07:28:54.442Z,52.96
2019-05-11T07:31:23.945Z,52.66
2019-05-11T07:33:53.461Z,52.04
2019-05-11T07:36:23.447Z,52.14
2019-05-11T07:38:52.956Z,53.14
2019-05-11T07:41:22.985Z,52.93
2019-05-11T07:43:52.612Z,51.74
2019-05-11T07:46:22.130Z,51.86
2019-05-11T07:48:51.667Z,51.59
2019-05-11T07:51:21.348Z,51.37
2019-05-11T07:53:50.878Z,52.15
2019-05-11T07:56:20.443Z,50.69
2019-05-11T07:58:50.221Z,50.21
2019-05-11T08:01:19.782Z,49.38
2019-05-11T08:03:49.306Z,48.43
2019-05-11T08:06:18.849Z,48.30
2019-05-11T08:08:49.030Z,48.06
2019-05-11T08:11:19.055Z,47.62
2019-05-11T08:13:48.680Z,46.54
2019-05-11T08:16:18.701Z,44.51
2019-05-11T08:18:48.603Z,43.43
2019-05-11T08:21:18.609Z,42.40
2019-05-11T08:23:48.526Z,42.64
2019-05-11T08:26:19.013Z,44.47
2019-05-11T08:28:48.837Z,42.82
2019-05-11T08:31:18.931Z,42.54
2019-05-11T08:33:48.481Z,43.09
2019-05-11T08:36:18.527Z,42.29
2019-05-11T08:38:48.513Z,43.20
2019-05-11T08:41:18.588Z,41.93
2019-05-11T08:43:48.585Z,39.77
2019-05-11T08:46:18.695Z,40.32
2019-05-11T08:48:48.408Z,39.90
2019-05-11T08:51:18.692Z,39.63
2019-05-11T08:53:48.426Z,38.83
2019-05-11T08:56:18.926Z,38.26
2019-05-11T08:58:49.318Z,38.97
2019-05-11T09:01:19.295Z,38.20
2019-05-11T09:03:48.813Z,37.82
2019-05-11T09:06:18.775Z,37.30
2019-05-11T09:08:49.275Z,38.10
2019-05-11T09:11:19.384Z,38.05
2019-05-11T09:13:49.101Z,38.71
2019-05-11T09:16:19.204Z,39.30
2019-05-11T09:18:48.995Z,38.82
2019-05-11T09:21:19.184Z,37.88
2019-05-11T09:23:48.896Z,37.73
2019-05-11T09:26:18.513Z,36.62
2019-05-11T09:28:48.207Z,37.11
2019-05-11T09:31:18.842Z,36.02
2019-05-11T09:33:48.869Z,35.77
2019-05-11T09:36:18.512Z,36.44
2019-05-11T09:38:48.944Z,36.45
2019-05-11T09:41:19.247Z,36.60
2019-05-11T09:43:48.919Z,36.67
2019-05-11T09:46:18.982Z,37.81
2019-05-11T09:48:49.022Z,39.04
2019-05-11T09:51:19.243Z,40.04
2019-05-11T09:53:48.958Z,39.97
2019-05-11T09:56:18.650Z,38.64
2019-05-11T09:58:48.489Z,37.29
2019-05-11T10:01:18.555Z,36.02
2019-05-11T10:03:48.486Z,36.38
2019-05-11T10:06:19.059Z,35.25
2019-05-11T10:08:49.007Z,34.25
2019-05-11T10:11:19.090Z,34.21
2019-05-11T10:13:49.246Z,34.27
2019-05-11T10:16:18.809Z,33.76
2019-05-11T10:18:49.315Z,34.17
2019-05-11T10:21:19.314Z,33.08
2019-05-11T10:23:49.165Z,32.27
2019-05-11T10:26:19.118Z,31.66
2019-05-11T10:28:48.655Z,30.95
2019-05-11T10:31:18.383Z,32.11
2019-05-11T10:33:49.042Z,31.63
2019-05-11T10:36:19.549Z,30.49
2019-05-11T10:38:49.056Z,31.25
2019-05-11T10:41:18.635Z,30.65
2019-05-11T10:43:49.181Z,30.94
2019-05-11T10:46:22.901Z,31.37
2019-05-11T10:48:50.224Z,30.47
2019-05-11T10:51:19.818Z,31.13
2019-05-11T10:53:51.923Z,31.16
2019-05-11T10:56:21.036Z,31.67
2019-05-11T10:58:51.505Z,30.98
2019-05-11T11:01:21.114Z,31.23
2019-05-11T11:03:50.747Z,32.01
2019-05-11T11:06:20.361Z,31.24
2019-05-11T11:08:49.933Z,30.61
2019-05-11T11:11:19.581Z,30.38
2019-05-11T11:13:49.158Z,29.09
2019-05-11T11:16:35.099Z,29.46
2019-05-11T11:18:49.970Z,30.11
2019-05-11T11:21:22.943Z,30.97
2019-05-11T11:23:51.572Z,30.60
2019-05-11T11:26:21.180Z,30.27
2019-05-11T11:28:50.779Z,29.54
2019-05-11T11:31:20.400Z,27.45
2019-05-11T11:33:49.902Z,27.98
2019-05-11T11:36:19.442Z,27.39
2019-05-11T11:38:49.153Z,28.84
2019-05-11T11:41:18.892Z,28.87
2019-05-11T11:43:48.658Z,28.66
2019-05-11T11:46:18.945Z,26.89
2019-05-11T11:48:49.145Z,26.85
2019-05-11T11:51:19.051Z,26.72
2019-05-11T11:53:48.903Z,27.97
2019-05-11T11:56:19.138Z,27.77
2019-05-11T11:58:49.239Z,26.82
2019-05-11T12:01:19.187Z,27.11
2019-05-11T12:03:49.158Z,27.66
2019-05-11T12:06:19.392Z,27.43
2019-05-11T12:08:49.794Z,27.10
2019-05-11T12:11:19.516Z,27.69
2019-05-11T12:13:49.608Z,26.52
2019-05-11T12:16:19.158Z,27.21
2019-05-11T12:18:48.892Z,26.81
2019-05-11T12:21:18.864Z,26.87
2019-05-11T12:23:48.817Z,26.60
2019-05-11T12:26:18.581Z,26.42
2019-05-11T12:28:48.994Z,26.78
2019-05-11T12:31:18.796Z,26.42
2019-05-11T12:33:48.615Z,26.13
2019-05-11T12:36:19.009Z,26.25
2019-05-11T12:38:49.102Z,25.62
2019-05-11T12:41:19.306Z,26.15
2019-05-11T12:43:49.439Z,26.38
2019-05-11T12:46:19.179Z,25.96
2019-05-11T12:48:48.812Z,26.56
2019-05-11T12:51:18.889Z,27.56
2019-05-11T12:53:48.658Z,27.41
2019-05-11T12:56:19.140Z,27.26
2019-05-11T12:58:49.298Z,27.13
2019-05-11T13:01:19.165Z,26.59
2019-05-11T13:03:49.334Z,25.54
2019-05-11T13:06:21.671Z,25.81
2019-05-11T13:08:51.192Z,27.30
2019-05-11T13:11:20.763Z,26.74
2019-05-11T13:13:50.288Z,26.98
2019-05-11T13:16:19.808Z,27.03
2019-05-11T13:18:49.741Z,27.01
2019-05-11T13:21:19.292Z,27.82
2019-05-11T13:23:49.101Z,27.55
2019-05-11T13:26:18.846Z,27.66
2019-05-11T13:28:48.690Z,26.73
2019-05-11T13:31:18.871Z,26.74
2019-05-11T13:33:48.660Z,27.13
2019-05-11T13:36:18.786Z,26.93
2019-05-11T13:38:48.970Z,27.51
2019-05-11T13:41:19.112Z,28.32
2019-05-11T13:43:48.976Z,28.34
2019-05-11T13:46:18.464Z,28.78
2019-05-11T13:48:48.112Z,29.79
2019-05-11T13:51:18.410Z,30.31
2019-05-11T13:53:48.437Z,29.45
2019-05-11T13:56:18.616Z,29.99
2019-05-11T13:58:48.972Z,30.24
2019-05-11T14:01:19.088Z,28.77
2019-05-11T14:03:48.702Z,28.20
2019-05-11T14:06:18.830Z,28.28
2019-05-11T14:08:48.476Z,28.40
2019-05-11T14:11:18.459Z,28.02
2019-05-11T14:13:48.240Z,28.02
2019-05-11T14:16:18.678Z,28.33
2019-05-11T14:18:49.066Z,28.29
2019-05-11T14:21:19.175Z,28.65
2019-05-11T14:23:48.766Z,28.48
2019-05-11T14:26:19.207Z,28.55
2019-05-11T14:28:49.346Z,29.68
2019-05-11T14:31:19.138Z,29.35
2019-05-11T14:33:49.094Z,28.21
2019-05-11T14:36:18.788Z,28.70
2019-05-11T14:38:48.893Z,28.00
2019-05-11T14:41:18.725Z,28.18
2019-05-11T14:43:51.407Z,28.06
2019-05-11T14:46:21.006Z,28.10
2019-05-11T14:48:50.591Z,28.42
2019-05-11T14:51:20.633Z,28.53
2019-05-11T14:53:50.213Z,28.64
2019-05-11T14:56:19.713Z,28.16
2019-05-11T14:58:49.448Z,28.64
2019-05-11T15:01:19.157Z,28.77
2019-05-11T15:03:48.893Z,29.30
2019-05-11T15:06:19.467Z,29.96
2019-05-11T15:08:51.953Z,30.18
2019-05-11T15:11:21.636Z,29.76
2019-05-11T15:13:51.421Z,28.92
2019-05-11T15:16:21.159Z,28.65
2019-05-11T15:18:51.016Z,28.60
2019-05-11T15:21:22.104Z,28.34
2019-05-11T15:23:51.828Z,28.44
2019-05-11T15:26:21.885Z,29.88
2019-05-11T15:28:51.601Z,30.34
2019-05-11T15:31:22.501Z,29.96
2019-05-11T15:33:52.194Z,29.93
2019-05-11T15:36:21.766Z,30.46
2019-05-11T15:38:51.540Z,30.39
2019-05-11T15:41:21.586Z,29.40
2019-05-11T15:43:53.354Z,29.81
2019-05-11T15:46:23.104Z,30.18
2019-05-11T15:48:58.805Z,29.55
2019-05-11T15:51:23.889Z,28.60
2019-05-11T15:53:53.414Z,29.18
2019-05-11T15:56:22.937Z,29.16
2019-05-11T15:58:52.496Z,29.42
2019-05-11T16:01:22.147Z,29.09
2019-05-11T16:03:51.738Z,28.00
2019-05-11T16:06:22.375Z,28.63
2019-05-11T16:08:52.046Z,28.86
2019-05-11T16:11:21.579Z,28.63
2019-05-11T16:13:51.171Z,28.33
2019-05-11T16:16:20.699Z,26.66
2019-05-11T16:18:50.968Z,27.15
2019-05-11T16:21:20.639Z,26.98
2019-05-11T16:23:50.539Z,27.13
2019-05-11T16:26:20.032Z,27.08
2019-05-11T16:28:49.939Z,27.04
2019-05-11T16:31:19.455Z,26.78
2019-05-11T16:33:49.082Z,26.90
2019-05-11T18:42:08.273Z,33.45
2019-05-11T18:44:39.562Z,33.28
2019-05-11T18:47:09.151Z,33.08
2019-05-11T18:49:38.813Z,33.58
2019-05-11T18:52:08.422Z,33.37
2019-05-11T18:54:38.477Z,33.07
2019-05-11T18:57:08.471Z,33.75
2019-05-11T18:59:38.061Z,33.85
2019-05-11T19:02:08.442Z,33.81
2019-05-11T19:04:38.321Z,34.14
2019-05-11T19:07:16.741Z,34.57
2019-05-11T19:09:39.289Z,34.71
2019-05-11T19:12:09.051Z,34.68
2019-05-11T19:14:38.691Z,34.31
2019-05-11T19:17:08.299Z,34.82
2019-05-11T19:19:41.502Z,34.94
2019-05-11T19:22:11.540Z,35.17
2019-05-11T19:24:41.053Z,35.37
2019-05-11T19:27:10.656Z,35.70
2019-05-11T19:29:40.165Z,36.01
2019-05-11T19:32:11.080Z,36.20
2019-05-11T19:34:40.953Z,36.47
2019-05-11T19:37:10.559Z,36.68
2019-05-11T19:39:40.280Z,36.96
2019-05-11T19:42:11.995Z,36.98
2019-05-11T19:44:43.716Z,37.54
2019-05-11T19:47:14.992Z,37.84
2019-05-11T19:49:44.587Z,38.80
2019-05-11T19:52:14.174Z,39.54
2019-05-11T19:54:43.887Z,39.89
2019-05-11T19:57:13.720Z,40.36
2019-05-11T19:59:43.521Z,40.76
2019-05-11T20:02:13.646Z,40.37
2019-05-11T20:04:43.477Z,40.16
2019-05-11T20:07:13.114Z,39.91
2019-05-11T20:09:42.828Z,39.88
2019-05-11T20:12:12.472Z,40.17
2019-05-11T20:14:42.151Z,39.91
2019-05-11T20:17:11.925Z,39.52
2019-05-11T20:19:41.680Z,39.69
2019-05-11T20:22:11.229Z,39.21
2019-05-11T20:24:41.271Z,39.85
2019-05-11T20:27:11.016Z,39.76
2019-05-11T20:29:40.658Z,38.62
2019-05-11T20:32:10.556Z,38.96
2019-05-11T20:34:40.052Z,40.11
2019-05-11T20:37:09.840Z,41.36
2019-05-11T20:39:39.718Z,43.23
2019-05-11T20:42:09.260Z,46.49
2019-05-11T20:44:39.574Z,48.42
2019-05-11T20:47:09.851Z,49.95
2019-05-11T20:49:39.473Z,51.48
2019-05-11T20:52:09.257Z,52.49
2019-05-11T20:54:38.832Z,53.00
2019-05-11T20:57:08.990Z,53.34
2019-05-11T20:59:38.906Z,53.48
2019-05-11T21:02:09.268Z,54.10
2019-05-11T21:04:39.412Z,54.55
2019-05-11T21:07:09.006Z,55.21
2019-05-11T21:09:39.761Z,56.36
2019-05-11T21:12:09.528Z,56.94
2019-05-11T21:14:39.202Z,57.14
2019-05-11T21:17:09.108Z,57.41
2019-05-11T21:19:42.421Z,57.69
2019-05-11T21:22:14.818Z,58.29
2019-05-11T21:24:49.338Z,57.84
2019-05-11T21:27:19.965Z,58.48
2019-05-11T21:29:49.127Z,59.49
2019-05-11T21:32:19.128Z,60.21
2019-05-11T21:34:49.018Z,60.53
2019-05-11T21:37:18.838Z,60.57
2019-05-11T21:39:49.051Z,60.20
2019-05-11T21:42:18.727Z,60.75
2019-05-11T21:44:48.617Z,61.01
2019-05-11T21:47:18.434Z,60.78
2019-05-11T21:49:48.491Z,60.46
2019-05-11T21:52:18.535Z,60.91
2019-05-11T21:54:49.065Z,61.35
2019-05-11T21:57:18.806Z,60.79
2019-05-11T21:59:49.287Z,60.62
2019-05-11T22:02:19.363Z,60.32
2019-05-11T22:04:49.167Z,60.37
2019-05-11T22:07:18.739Z,59.97
2019-05-11T22:09:48.444Z,59.94
2019-05-11T22:12:18.756Z,60.29
2019-05-11T22:14:48.951Z,59.93
2019-05-11T22:17:18.830Z,60.24
2019-05-11T22:19:49.034Z,60.50
2019-05-11T22:22:24.867Z,60.61
2019-05-11T22:24:50.799Z,60.27
2019-05-11T22:27:20.394Z,60.04
2019-05-11T22:29:50.083Z,60.30
2019-05-11T22:32:19.776Z,60.67
2019-05-11T22:34:49.388Z,60.63
2019-05-11T22:37:18.935Z,60.43
2019-05-11T22:39:49.498Z,60.09
2019-05-11T22:42:19.893Z,60.18
2019-05-11T22:44:49.950Z,60.64
2019-05-11T22:47:19.700Z,60.07
2019-05-11T22:49:50.612Z,59.69
2019-05-11T22:52:32.964Z,59.56
2019-05-11T22:54:53.677Z,59.40
2019-05-11T22:57:26.658Z,59.30
2019-05-11T23:00:01.687Z,59.32
2019-05-11T23:02:31.893Z,59.80
2019-05-11T23:05:01.480Z,60.13
2019-05-11T23:07:31.052Z,60.82
2019-05-11T23:10:00.713Z,60.53
2019-05-11T23:12:30.331Z,60.26
2019-05-11T23:15:08.090Z,60.33
2019-05-11T23:17:38.688Z,60.06
2019-05-11T23:20:10.977Z,60.78
2019-05-11T23:22:57.426Z,60.08
2019-05-11T23:25:21.196Z,60.20
2019-05-11T23:27:50.934Z,60.18
2019-05-11T23:30:21.702Z,60.58
2019-05-11T23:32:51.876Z,60.61
2019-05-11T23:35:23.135Z,60.33
2019-05-11T23:37:53.834Z,60.33
2019-05-11T23:40:23.712Z,60.40
2019-05-11T23:42:53.231Z,60.26
2019-05-11T23:45:23.045Z,60.33
2019-05-11T23:47:52.617Z,60.48
2019-05-11T23:50:22.779Z,60.19
2019-05-11T23:53:05.587Z,59.93
2019-05-11T23:55:23.751Z,60.41
2019-05-11T23:57:53.274Z,60.71
